createdAt,value
2023-02-19T00:00:06.697Z,2.08
2023-02-19T00:02:57.130Z,1.95
2023-02-19T00:05:25.485Z,2.13
2023-02-19T00:07:55.874Z,2.30
2023-02-19T00:10:24.275Z,2.70
2023-02-19T00:12:53.279Z,3.63
2023-02-19T00:15:21.719Z,2.60
2023-02-19T00:17:50.288Z,3.60
2023-02-19T00:20:19.169Z,2.85
2023-02-19T00:22:47.676Z,3.58
2023-02-19T00:25:17.963Z,4.82
2023-02-19T00:27:46.573Z,3.77
2023-02-19T00:30:15.450Z,3.95
2023-02-19T00:32:44.159Z,3.53
2023-02-19T00:35:12.772Z,3.30
2023-02-19T00:37:41.525Z,3.10
2023-02-19T00:40:10.822Z,4.00
2023-02-19T00:42:41.277Z,3.60
2023-02-19T00:45:10.151Z,3.72
2023-02-19T00:47:39.008Z,3.17
2023-02-19T00:50:07.553Z,2.35
2023-02-19T00:52:37.562Z,2.63
2023-02-19T00:55:06.667Z,3.05
2023-02-19T00:57:35.094Z,2.47
2023-02-19T01:00:06.886Z,2.47
2023-02-19T01:02:35.637Z,2.47
2023-02-19T01:05:05.859Z,2.50
2023-02-19T01:07:36.828Z,2.40
2023-02-19T01:10:05.756Z,2.65
2023-02-19T01:12:34.616Z,3.47
2023-02-19T01:15:04.983Z,4.47
2023-02-19T01:17:33.625Z,4.22
2023-02-19T01:20:01.939Z,4.45
2023-02-19T01:22:30.989Z,4.68
2023-02-19T01:24:59.170Z,3.80
2023-02-19T01:27:27.983Z,4.28
2023-02-19T01:29:56.176Z,3.92
2023-02-19T01:32:26.355Z,3.60
2023-02-19T01:34:54.521Z,4.57
2023-02-19T01:37:22.963Z,4.45
2023-02-19T01:39:51.601Z,4.93
2023-02-19T01:42:20.157Z,4.70
2023-02-19T01:45:25.253Z,5.40
2023-02-19T01:48:00.745Z,4.78
2023-02-19T01:50:31.493Z,5.00
2023-02-19T01:53:00.960Z,5.32
2023-02-19T01:55:29.460Z,5.55
2023-02-19T01:57:58.021Z,6.05
2023-02-19T02:00:27.038Z,6.13
2023-02-19T02:02:58.262Z,5.68
2023-02-19T02:05:36.651Z,6.35
2023-02-19T02:08:23.457Z,6.63
2023-02-19T02:10:52.646Z,6.60
2023-02-19T02:13:21.198Z,6.38
2023-02-19T02:15:54.609Z,6.20
2023-02-19T02:18:35.748Z,5.90
2023-02-19T02:21:44.655Z,5.13
2023-02-19T02:24:22.977Z,4.80
2023-02-19T02:26:59.954Z,4.60
2023-02-19T02:29:57.290Z,4.72
2023-02-19T02:32:28.583Z,4.32
2023-02-19T02:35:01.359Z,4.13
2023-02-19T02:37:32.045Z,4.57
2023-02-19T02:40:00.780Z,4.65
2023-02-19T02:42:29.307Z,4.13
2023-02-19T02:45:26.300Z,4.25
2023-02-19T02:47:56.236Z,4.72
2023-02-19T02:50:27.735Z,5.22
2023-02-19T02:53:18.212Z,4.90
2023-02-19T02:55:49.877Z,6.37
2023-02-19T03:01:10.563Z,5.20
2023-02-19T03:03:40.056Z,4.10
2023-02-19T03:06:09.692Z,4.20
2023-02-19T03:08:40.912Z,3.50
2023-02-19T03:11:29.241Z,3.15
2023-02-19T03:14:18.598Z,3.28
2023-02-19T03:17:07.449Z,2.72
2023-02-19T03:19:38.677Z,3.17
2023-02-19T03:22:10.974Z,2.90
2023-02-19T03:24:59.828Z,3.15
2023-02-19T03:27:30.771Z,2.47
2023-02-19T03:30:00.491Z,2.95
2023-02-19T03:32:32.834Z,2.67
2023-02-19T03:35:03.190Z,3.05
2023-02-19T03:37:40.896Z,2.92
2023-02-19T03:40:10.243Z,3.00
2023-02-19T03:42:45.110Z,2.53
2023-02-19T03:45:36.492Z,2.42
2023-02-19T03:48:33.115Z,2.10
2023-02-19T03:51:18.558Z,1.88
2023-02-19T03:53:53.901Z,1.63
2023-02-19T03:56:28.064Z,2.15
2023-02-19T03:58:59.199Z,2.30
2023-02-19T04:01:31.639Z,2.10
2023-02-19T04:04:05.244Z,2.10
2023-02-19T04:06:34.361Z,2.10
2023-02-19T04:09:05.067Z,1.88
2023-02-19T04:11:33.927Z,2.70
2023-02-19T04:14:05.758Z,2.92
2023-02-19T04:16:35.685Z,3.15
2023-02-19T04:19:07.991Z,5.28
2023-02-19T04:21:36.842Z,7.20
2023-02-19T04:24:10.409Z,7.93
2023-02-19T04:26:38.671Z,7.97
2023-02-19T04:29:07.386Z,7.72
2023-02-19T04:31:36.991Z,7.65
2023-02-19T04:34:06.919Z,6.07
2023-02-19T04:36:35.226Z,6.80
2023-02-19T04:39:03.955Z,5.18
2023-02-19T04:41:32.086Z,5.65
2023-02-19T04:44:00.697Z,5.82
2023-02-19T04:46:29.121Z,5.85
2023-02-19T04:48:57.830Z,6.63
2023-02-19T04:51:27.802Z,6.45
2023-02-19T04:53:56.867Z,6.28
2023-02-19T04:56:25.222Z,6.13
2023-02-19T04:58:53.916Z,6.22
2023-02-19T05:01:22.249Z,7.85
2023-02-19T05:03:50.915Z,15.13
2023-02-19T05:06:20.071Z,14.13
2023-02-19T05:08:50.231Z,16.42
2023-02-19T05:11:18.641Z,16.80
2023-02-19T05:13:47.169Z,15.35
2023-02-19T05:16:17.284Z,16.60
2023-02-19T05:18:47.283Z,12.70
2023-02-19T05:21:16.026Z,12.88
2023-02-19T05:23:44.793Z,9.82
2023-02-19T05:26:18.107Z,10.00
2023-02-19T05:28:47.520Z,6.90
2023-02-19T05:31:16.381Z,8.80
2023-02-19T05:33:48.272Z,9.20
2023-02-19T05:36:16.462Z,7.47
2023-02-19T05:38:44.930Z,6.47
2023-02-19T05:41:16.642Z,6.47
2023-02-19T05:43:46.753Z,6.15
2023-02-19T05:46:16.764Z,7.17
2023-02-19T05:48:45.541Z,7.50
2023-02-19T05:51:15.552Z,7.30
2023-02-19T05:53:45.157Z,6.40
2023-02-19T05:56:29.634Z,5.88
2023-02-19T05:58:58.458Z,5.18
2023-02-19T06:01:28.719Z,5.70
2023-02-19T06:03:57.965Z,5.70
2023-02-19T06:06:27.267Z,6.40
2023-02-19T06:08:56.096Z,5.38
2023-02-19T06:11:26.525Z,5.72
2023-02-19T06:13:55.103Z,5.78
2023-02-19T06:16:24.531Z,4.38
2023-02-19T06:18:53.417Z,3.58
2023-02-19T06:21:21.942Z,3.00
2023-02-19T06:23:50.531Z,2.95
2023-02-19T06:26:21.033Z,2.20
2023-02-19T06:28:52.305Z,2.45
2023-02-19T06:31:22.133Z,2.80
2023-02-19T06:33:51.673Z,2.60
2023-02-19T06:36:24.434Z,3.00
2023-02-19T06:38:53.306Z,3.42
2023-02-19T06:41:21.510Z,3.60
2023-02-19T06:43:51.409Z,3.88
2023-02-19T06:46:19.751Z,5.03
2023-02-19T06:48:48.522Z,5.20
2023-02-19T06:51:19.841Z,6.00
2023-02-19T06:53:48.377Z,6.28
2023-02-19T06:56:25.502Z,5.47
2023-02-19T06:58:57.076Z,6.25
2023-02-19T07:01:25.388Z,6.10
2023-02-19T07:03:54.196Z,6.60
2023-02-19T07:06:23.472Z,6.55
2023-02-19T07:08:52.977Z,7.30
2023-02-19T07:11:21.295Z,7.75
2023-02-19T07:13:49.751Z,7.72
2023-02-19T07:16:19.635Z,7.65
2023-02-19T07:18:48.173Z,8.40
2023-02-19T07:21:17.937Z,8.00
2023-02-19T07:23:47.242Z,8.60
2023-02-19T07:26:17.763Z,8.75
2023-02-19T07:28:47.612Z,9.43
2023-02-19T07:31:21.987Z,8.43
2023-02-19T07:33:51.462Z,9.38
2023-02-19T07:36:20.271Z,9.15
2023-02-19T07:38:49.046Z,8.45
2023-02-19T07:41:17.414Z,8.15
2023-02-19T07:43:46.004Z,8.77
2023-02-19T07:46:15.548Z,8.82
2023-02-19T07:48:45.947Z,8.25
2023-02-19T07:51:16.790Z,9.23
2023-02-19T07:53:46.058Z,9.10
2023-02-19T07:56:14.732Z,9.85
2023-02-19T07:58:44.226Z,9.98
2023-02-19T08:01:15.549Z,11.10
2023-02-19T08:03:45.264Z,9.90
2023-02-19T08:06:13.710Z,11.02
2023-02-19T08:08:42.772Z,12.48
2023-02-19T08:11:29.252Z,12.95
2023-02-19T08:13:58.368Z,13.63
2023-02-19T08:16:42.255Z,15.75
2023-02-19T08:19:13.320Z,15.57
2023-02-19T08:21:41.551Z,13.73
2023-02-19T08:24:10.494Z,14.27
2023-02-19T08:26:38.950Z,19.35
2023-02-19T08:29:07.946Z,12.98
2023-02-19T08:31:36.992Z,11.02
2023-02-19T08:34:05.595Z,12.50
2023-02-19T08:36:35.606Z,10.00
2023-02-19T08:39:04.156Z,9.73
2023-02-19T08:41:32.606Z,11.68
2023-02-19T08:44:01.364Z,13.55
2023-02-19T08:46:34.409Z,14.02
2023-02-19T08:49:03.318Z,14.43
2023-02-19T08:51:31.705Z,12.85
2023-02-19T08:54:03.698Z,11.23
2023-02-19T08:56:32.403Z,10.50
2023-02-19T08:59:01.147Z,10.90
2023-02-19T09:01:29.588Z,13.60
2023-02-19T09:03:58.345Z,12.95
2023-02-19T09:06:27.041Z,12.10
2023-02-19T09:08:55.834Z,9.45
2023-02-19T09:11:25.693Z,7.32
2023-02-19T09:13:57.209Z,8.65
2023-02-19T09:16:25.677Z,7.95
2023-02-19T09:18:54.516Z,10.35
2023-02-19T09:21:22.813Z,12.18
2023-02-19T09:23:51.369Z,14.60
2023-02-19T09:26:20.195Z,11.23
2023-02-19T09:28:50.055Z,9.32
2023-02-19T09:31:18.589Z,9.88
2023-02-19T09:33:48.619Z,10.73
2023-02-19T09:36:18.884Z,8.80
2023-02-19T09:38:47.600Z,10.15
2023-02-19T09:41:19.706Z,7.03
2023-02-19T09:43:49.622Z,8.00
2023-02-19T09:46:25.768Z,7.00
2023-02-19T09:48:56.575Z,8.52
2023-02-19T09:51:26.669Z,9.00
2023-02-19T09:53:56.222Z,7.60
2023-02-19T09:56:24.416Z,7.82
2023-02-19T09:58:56.622Z,6.68
2023-02-19T10:01:28.165Z,6.50
2023-02-19T10:03:56.997Z,7.78
2023-02-19T10:06:27.155Z,6.97
2023-02-19T10:08:58.290Z,7.95
2023-02-19T10:11:27.415Z,10.90
2023-02-19T10:14:04.414Z,8.48
2023-02-19T10:16:32.696Z,12.73
2023-02-19T10:19:02.325Z,13.77
2023-02-19T10:21:30.733Z,5.65
2023-02-19T10:24:01.565Z,5.22
2023-02-19T10:26:34.825Z,3.70
2023-02-19T10:29:05.460Z,4.82
2023-02-19T10:31:34.893Z,4.15
2023-02-19T10:34:04.601Z,4.60
2023-02-19T10:36:34.181Z,4.53
2023-02-19T10:39:29.132Z,5.20
2023-02-19T10:41:58.785Z,4.10
2023-02-19T10:44:30.409Z,4.07
2023-02-19T10:49:30.624Z,3.53
2023-02-19T10:54:32.529Z,5.15
2023-02-19T10:57:18.491Z,5.13
2023-02-19T10:59:52.829Z,4.03
2023-02-19T11:02:22.848Z,4.40
2023-02-19T11:05:06.352Z,6.72
2023-02-19T11:07:34.800Z,6.70
2023-02-19T11:10:04.851Z,4.95
2023-02-19T11:12:34.875Z,4.57
2023-02-19T11:15:21.431Z,5.13
2023-02-19T11:17:56.199Z,3.92
2023-02-19T11:20:25.301Z,4.80
2023-02-19T11:22:53.814Z,5.05
2023-02-19T11:25:25.774Z,13.27
2023-02-19T11:28:07.320Z,9.30
2023-02-19T11:30:42.659Z,3.92
2023-02-19T11:33:28.321Z,6.00
2023-02-19T11:36:22.043Z,4.72
2023-02-19T11:38:50.424Z,4.45
2023-02-19T11:41:25.842Z,3.97
2023-02-19T11:44:04.657Z,3.90
2023-02-19T11:46:43.231Z,5.05
2023-02-19T11:49:21.530Z,5.22
2023-02-19T11:52:01.078Z,6.07
2023-02-19T11:54:40.219Z,6.25
2023-02-19T11:57:15.484Z,8.95
2023-02-19T11:59:47.564Z,11.25
2023-02-19T12:02:32.883Z,10.43
2023-02-19T12:05:20.091Z,7.10
2023-02-19T12:08:19.060Z,7.43
2023-02-19T12:10:58.695Z,10.98
2023-02-19T12:13:33.460Z,14.35
2023-02-19T12:16:18.529Z,7.80
2023-02-19T12:19:10.608Z,10.15
2023-02-19T12:24:54.551Z,14.40
2023-02-19T12:27:31.518Z,10.93
2023-02-19T12:30:21.620Z,8.40
2023-02-19T12:33:09.381Z,13.38
2023-02-19T12:35:53.595Z,10.10
2023-02-19T12:38:24.435Z,8.73
2023-02-19T12:41:14.572Z,9.07
2023-02-19T12:43:48.406Z,10.27
2023-02-19T12:46:21.705Z,8.73
2023-02-19T12:48:54.149Z,4.97
2023-02-19T12:51:28.213Z,6.43
2023-02-19T12:54:00.669Z,7.60
2023-02-19T12:56:32.448Z,5.70
2023-02-19T13:01:34.803Z,10.10
2023-02-19T13:04:18.062Z,8.68
2023-02-19T13:06:53.133Z,9.10
2023-02-19T13:09:24.885Z,11.80
2023-02-19T13:11:57.879Z,11.95
2023-02-19T13:14:29.119Z,9.95
2023-02-19T13:17:02.307Z,9.55
2023-02-19T13:19:32.085Z,10.52
2023-02-19T13:22:24.119Z,7.53
2023-02-19T13:27:54.937Z,8.93
2023-02-19T13:30:31.369Z,9.82
2023-02-19T13:33:04.820Z,5.45
2023-02-19T13:35:56.537Z,7.00
2023-02-19T13:38:27.081Z,5.65
2023-02-19T13:40:56.524Z,7.00
2023-02-19T13:43:27.157Z,7.78
2023-02-19T13:45:58.082Z,6.40
2023-02-19T13:51:29.225Z,10.85
2023-02-19T13:54:02.733Z,8.18
2023-02-19T13:56:41.520Z,10.15
2023-02-19T13:59:29.435Z,7.13
2023-02-19T14:02:30.727Z,6.15
2023-02-19T14:05:02.396Z,5.07
2023-02-19T14:08:03.227Z,3.97
2023-02-19T14:10:57.875Z,6.35
2023-02-19T14:14:09.928Z,6.47
2023-02-19T14:16:56.570Z,4.97
2023-02-19T14:19:48.897Z,6.20
2023-02-19T14:23:03.187Z,7.30
2023-02-19T14:25:39.432Z,6.13
2023-02-19T14:28:17.125Z,5.22
2023-02-19T14:30:50.411Z,4.35
2023-02-19T14:33:22.494Z,3.95
2023-02-19T14:35:54.078Z,4.53
2023-02-19T14:38:25.027Z,4.07
2023-02-19T14:40:54.282Z,5.93
2023-02-19T14:43:26.314Z,5.70
2023-02-19T14:45:59.429Z,7.35
2023-02-19T14:48:31.438Z,8.45
2023-02-19T14:51:04.253Z,13.20
2023-02-19T14:53:38.231Z,15.27
2023-02-19T14:56:07.734Z,15.45
2023-02-19T14:58:37.152Z,27.30
2023-02-19T15:01:09.675Z,10.35
2023-02-19T15:03:42.162Z,6.10
2023-02-19T15:06:14.570Z,5.15
2023-02-19T15:08:45.436Z,5.45
2023-02-19T15:11:21.043Z,6.60
2023-02-19T15:13:53.247Z,7.85
2023-02-19T15:16:25.899Z,8.60
2023-02-19T15:18:55.309Z,7.15
2023-02-19T15:21:25.865Z,6.60
2023-02-19T15:23:55.844Z,7.68
2023-02-19T15:26:28.368Z,6.13
2023-02-19T15:29:01.720Z,5.53
2023-02-19T15:31:31.804Z,5.93
2023-02-19T15:34:00.566Z,4.80
2023-02-19T15:36:31.443Z,4.28
2023-02-19T15:41:31.901Z,4.20
2023-02-19T15:44:09.116Z,4.60
2023-02-19T15:46:39.629Z,4.88
2023-02-19T15:49:11.041Z,4.45
2023-02-19T15:51:43.762Z,4.32
2023-02-19T15:54:19.074Z,4.68
2023-02-19T15:56:53.364Z,5.35
2023-02-19T15:59:26.625Z,4.53
2023-02-19T16:01:56.757Z,5.30
2023-02-19T16:04:25.554Z,5.53
2023-02-19T16:06:58.970Z,7.25
2023-02-19T16:09:31.929Z,6.10
2023-02-19T16:12:01.589Z,5.20
2023-02-19T16:14:32.023Z,6.40
2023-02-19T16:17:08.352Z,5.97
2023-02-19T16:19:45.811Z,6.93
2023-02-19T16:22:15.896Z,5.68
2023-02-19T16:24:47.016Z,4.25
2023-02-19T16:27:15.777Z,5.82
2023-02-19T16:29:51.814Z,5.47
2023-02-19T16:32:21.599Z,7.15
2023-02-19T16:34:51.839Z,7.80
2023-02-19T16:37:37.789Z,7.32
2023-02-19T16:40:41.849Z,6.82
2023-02-19T16:43:29.228Z,5.57
2023-02-19T16:45:58.519Z,6.00
2023-02-19T16:48:28.226Z,6.10
2023-02-19T16:50:57.176Z,7.22
2023-02-19T16:53:26.478Z,6.25
2023-02-19T16:55:55.272Z,7.07
2023-02-19T16:58:23.638Z,5.90
2023-02-19T17:00:52.717Z,7.85
2023-02-19T17:03:22.906Z,8.00
2023-02-19T17:05:53.832Z,9.25
2023-02-19T17:08:33.903Z,9.27
2023-02-19T17:11:04.374Z,8.53
2023-02-19T17:13:34.051Z,15.77
2023-02-19T17:16:03.096Z,6.35
2023-02-19T17:18:31.684Z,6.63
2023-02-19T17:21:06.037Z,7.95
2023-02-19T17:23:34.503Z,12.35
2023-02-19T17:26:03.486Z,7.40
2023-02-19T17:28:32.250Z,7.05
2023-02-19T17:31:01.402Z,10.32
2023-02-19T17:33:29.819Z,5.90
2023-02-19T17:35:58.612Z,7.40
2023-02-19T17:38:28.670Z,11.80
2023-02-19T17:40:57.543Z,7.77
2023-02-19T17:43:25.895Z,5.65
2023-02-19T17:45:54.823Z,5.18
2023-02-19T17:48:23.306Z,6.00
2023-02-19T17:50:52.400Z,5.90
2023-02-19T17:53:20.782Z,6.63
2023-02-19T17:55:50.774Z,6.25
2023-02-19T17:58:19.083Z,6.07
2023-02-19T18:00:47.755Z,6.18
2023-02-19T18:03:16.176Z,7.53
2023-02-19T18:05:45.013Z,7.30
2023-02-19T18:08:13.556Z,9.02
2023-02-19T18:10:42.217Z,9.90
2023-02-19T18:13:15.241Z,8.60
2023-02-19T18:15:43.823Z,8.45
2023-02-19T18:18:12.457Z,14.13
2023-02-19T18:20:41.236Z,16.23
2023-02-19T18:23:09.762Z,10.18
2023-02-19T18:25:38.574Z,9.50
2023-02-19T18:28:07.160Z,6.70
2023-02-19T18:30:37.332Z,7.07
2023-02-19T18:33:11.440Z,6.32
2023-02-19T18:35:40.307Z,5.60
2023-02-19T18:38:08.759Z,5.20
2023-02-19T18:40:37.201Z,4.53
2023-02-19T18:43:06.327Z,7.32
2023-02-19T18:45:37.364Z,7.40
2023-02-19T18:48:06.339Z,6.72
2023-02-19T18:50:35.152Z,6.13
2023-02-19T18:53:03.693Z,7.10
2023-02-19T18:55:32.451Z,6.28
2023-02-19T18:58:00.680Z,6.15
2023-02-19T19:00:29.304Z,4.40
2023-02-19T19:03:00.624Z,5.47
2023-02-19T19:05:29.617Z,6.45
2023-02-19T19:07:59.402Z,7.43
2023-02-19T19:10:28.829Z,6.20
2023-02-19T19:12:57.645Z,6.03
2023-02-19T19:15:26.570Z,6.00
2023-02-19T19:17:55.086Z,5.70
2023-02-19T19:20:25.144Z,6.10
2023-02-19T19:22:54.329Z,6.57
2023-02-19T19:25:24.005Z,7.55
2023-02-19T19:27:56.061Z,7.85
2023-02-19T19:30:24.778Z,7.28
2023-02-19T19:32:53.922Z,6.60
2023-02-19T19:35:24.483Z,7.57
2023-02-19T19:37:53.030Z,8.20
2023-02-19T19:40:22.017Z,8.40
2023-02-19T19:42:52.299Z,8.10
2023-02-19T19:45:21.216Z,8.32
2023-02-19T19:47:49.945Z,9.77
2023-02-19T19:50:19.401Z,8.20
2023-02-19T19:52:49.007Z,7.97
2023-02-19T19:55:21.823Z,7.20
2023-02-19T19:57:50.405Z,6.75
2023-02-19T20:00:19.855Z,5.80
2023-02-19T20:02:48.205Z,6.30
2023-02-19T20:05:16.937Z,6.63
2023-02-19T20:07:45.575Z,6.43
2023-02-19T20:10:16.106Z,6.80
2023-02-19T20:12:44.647Z,7.35
2023-02-19T20:15:14.071Z,7.45
2023-02-19T20:17:42.712Z,7.38
2023-02-19T20:20:12.087Z,7.22
2023-02-19T20:22:40.798Z,7.55
2023-02-19T20:25:09.663Z,7.32
2023-02-19T20:27:39.795Z,8.25
2023-02-19T20:30:11.381Z,7.57
2023-02-19T20:32:40.118Z,9.05
2023-02-19T20:35:09.179Z,7.28
2023-02-19T20:37:39.208Z,8.73
2023-02-19T20:40:08.857Z,8.20
2023-02-19T20:42:39.161Z,8.23
2023-02-19T20:45:08.164Z,9.20
2023-02-19T20:47:38.011Z,9.25
2023-02-19T20:50:07.925Z,10.05
2023-02-19T20:52:36.503Z,9.32
2023-02-19T20:55:05.970Z,9.63
2023-02-19T20:57:34.959Z,9.63
2023-02-19T21:00:05.680Z,7.55
2023-02-19T21:02:35.203Z,8.77
2023-02-19T21:05:04.449Z,9.30
2023-02-19T21:07:33.048Z,8.45
2023-02-19T21:10:01.500Z,8.80
2023-02-19T21:12:30.237Z,8.05
2023-02-19T21:15:01.404Z,8.30
2023-02-19T21:17:31.278Z,8.52
2023-02-19T21:19:59.615Z,10.27
2023-02-19T21:22:28.069Z,10.73
2023-02-19T21:24:56.598Z,9.45
2023-02-19T21:27:25.317Z,9.88
2023-02-19T21:29:53.683Z,10.10
2023-02-19T21:32:22.484Z,9.50
2023-02-19T21:34:52.150Z,10.13
2023-02-19T21:37:20.625Z,10.95
2023-02-19T21:39:49.125Z,10.35
2023-02-19T21:42:17.892Z,9.10
2023-02-19T21:44:46.633Z,8.68
2023-02-19T21:47:15.110Z,9.57
2023-02-19T21:49:43.888Z,9.80
2023-02-19T21:52:14.194Z,10.32
2023-02-19T21:54:42.590Z,8.27
2023-02-19T21:57:11.146Z,9.07
2023-02-19T21:59:39.590Z,8.82
2023-02-19T22:02:08.410Z,9.88
2023-02-19T22:04:36.713Z,9.65
2023-02-19T22:07:05.315Z,8.18
2023-02-19T22:09:35.115Z,8.40
2023-02-19T22:12:03.756Z,7.50
2023-02-19T22:14:31.928Z,7.20
2023-02-19T22:17:00.553Z,8.18
2023-02-19T22:19:28.910Z,8.00
2023-02-19T22:21:57.620Z,8.25
2023-02-19T22:24:25.888Z,8.15
2023-02-19T22:26:58.492Z,7.93
2023-02-19T22:29:27.193Z,8.60
2023-02-19T22:31:56.004Z,8.88
2023-02-19T22:34:24.402Z,9.65
2023-02-19T22:36:52.921Z,8.63
2023-02-19T22:39:22.862Z,7.82
2023-02-19T22:41:52.083Z,9.20
2023-02-19T22:44:21.670Z,7.93
2023-02-19T22:46:52.247Z,8.05
2023-02-19T22:49:21.255Z,8.52
2023-02-19T22:51:51.805Z,8.25
2023-02-19T22:54:22.070Z,7.97
2023-02-19T22:56:50.549Z,7.07
2023-02-19T22:59:18.825Z,10.43
2023-02-19T23:01:49.004Z,9.90
2023-02-19T23:04:17.767Z,8.90
2023-02-19T23:06:46.570Z,9.15
2023-02-19T23:09:17.368Z,9.38
2023-02-19T23:11:46.389Z,8.88
2023-02-19T23:14:17.796Z,8.05
2023-02-19T23:16:46.257Z,8.80
2023-02-19T23:19:16.938Z,8.32
2023-02-19T23:24:15.478Z,8.85
2023-02-19T23:26:44.578Z,8.60
2023-02-19T23:29:13.169Z,7.78
2023-02-19T23:31:42.024Z,8.55
2023-02-19T23:34:10.422Z,8.38
2023-02-19T23:36:42.856Z,8.38
2023-02-19T23:39:12.116Z,7.43
2023-02-19T23:41:40.713Z,8.80
2023-02-19T23:44:09.131Z,8.23
2023-02-19T23:46:37.570Z,8.13
2023-02-19T23:49:06.076Z,8.57
2023-02-19T23:51:35.022Z,8.00
2023-02-19T23:54:05.078Z,7.90
2023-02-19T23:56:34.058Z,6.63
2023-02-19T23:59:02.696Z,7.90
